createdAt,value
2019-01-24T00:01:00.227Z,164.97
2019-01-24T00:03:29.680Z,106.33
2019-01-24T00:05:59.130Z,105.27
2019-01-24T00:08:28.699Z,99.67
2019-01-24T00:10:58.141Z,114.03
2019-01-24T00:13:27.486Z,104.53
2019-01-24T00:15:56.898Z,97.17
2019-01-24T00:18:26.280Z,100.13
2019-01-24T00:20:55.723Z,99.30
2019-01-24T00:23:25.312Z,108.00
2019-01-24T00:25:54.680Z,116.13
2019-01-24T00:28:24.102Z,83.23
2019-01-24T00:30:53.603Z,74.53
2019-01-24T00:33:23.013Z,73.73
2019-01-24T00:35:52.466Z,78.90
2019-01-24T00:38:21.955Z,60.37
2019-01-24T00:40:51.433Z,64.83
2019-01-24T00:43:20.795Z,67.30
2019-01-24T00:45:50.211Z,80.77
2019-01-24T00:48:19.656Z,65.33
2019-01-24T00:50:49.067Z,81.87
2019-01-24T00:53:18.510Z,73.20
2019-01-24T00:55:47.895Z,131.73
2019-01-24T00:58:17.347Z,80.40
2019-01-24T01:00:46.827Z,76.13
2019-01-24T01:03:16.207Z,69.20
2019-01-24T01:05:45.556Z,64.23
2019-01-24T01:08:14.980Z,53.90
2019-01-24T01:10:44.387Z,49.97
2019-01-24T01:13:13.761Z,60.00
2019-01-24T01:15:43.177Z,60.40
2019-01-24T01:18:12.680Z,59.53
2019-01-24T01:20:42.114Z,57.87
2019-01-24T01:23:11.514Z,88.30
2019-01-24T01:25:40.883Z,64.07
2019-01-24T01:28:10.261Z,167.57
2019-01-24T01:30:39.717Z,200.23
2019-01-24T01:33:09.138Z,111.60
2019-01-24T01:35:38.509Z,234.57
2019-01-24T01:38:08.118Z,289.60
2019-01-24T01:40:37.481Z,132.83
2019-01-24T01:43:06.956Z,222.27
2019-01-24T01:45:36.457Z,175.87
2019-01-24T01:48:05.898Z,295.27
2019-01-24T01:50:35.339Z,65.50
2019-01-24T01:53:04.765Z,84.57
2019-01-24T01:55:34.307Z,90.00
2019-01-24T01:58:03.669Z,72.53
2019-01-24T02:00:33.194Z,84.90
2019-01-24T02:03:02.580Z,60.70
2019-01-24T02:05:32.057Z,97.83
2019-01-24T02:08:01.568Z,94.40
2019-01-24T02:10:30.952Z,76.73
2019-01-24T02:13:00.341Z,64.27
2019-01-24T02:15:29.750Z,66.27
2019-01-24T02:17:59.155Z,89.10
2019-01-24T02:20:28.576Z,145.57
2019-01-24T02:22:57.986Z,104.13
2019-01-24T02:25:27.318Z,75.77
2019-01-24T02:27:56.671Z,69.70
2019-01-24T02:30:28.428Z,98.93
2019-01-24T02:32:57.846Z,61.87
2019-01-24T02:35:27.214Z,59.57
2019-01-24T02:37:56.621Z,63.03
2019-01-24T02:40:26.009Z,59.43
2019-01-24T02:42:55.422Z,53.80
2019-01-24T02:45:25.732Z,58.93
2019-01-24T02:47:55.190Z,69.47
2019-01-24T02:50:24.651Z,78.70
2019-01-24T02:52:54.068Z,68.57
2019-01-24T02:55:23.538Z,72.13
2019-01-24T02:57:52.998Z,61.73
2019-01-24T03:00:23.271Z,61.03
2019-01-24T03:02:52.878Z,53.90
2019-01-24T03:05:22.952Z,52.33
2019-01-24T03:07:52.817Z,56.83
2019-01-24T03:10:22.243Z,53.20
2019-01-24T03:12:51.580Z,48.53
2019-01-24T03:15:22.056Z,48.67
2019-01-24T03:17:52.228Z,54.07
2019-01-24T03:20:21.771Z,42.80
2019-01-24T03:22:51.262Z,45.83
2019-01-24T03:25:20.706Z,47.50
2019-01-24T03:27:50.126Z,54.07
2019-01-24T03:30:21.232Z,43.47
2019-01-24T03:32:50.710Z,38.50
2019-01-24T03:35:25.682Z,36.67
2019-01-24T03:37:55.106Z,40.43
2019-01-24T03:40:24.562Z,41.70
2019-01-24T03:42:54.022Z,41.17
2019-01-24T03:45:23.422Z,43.37
2019-01-24T03:47:52.888Z,42.70
2019-01-24T03:50:22.857Z,38.77
2019-01-24T03:52:52.290Z,38.77
2019-01-24T03:55:22.853Z,37.83
2019-01-24T03:57:52.272Z,36.47
2019-01-24T04:00:23.399Z,35.03
2019-01-24T04:02:53.308Z,34.87
2019-01-24T04:05:22.786Z,35.07
2019-01-24T04:07:52.154Z,36.23
2019-01-24T04:10:22.353Z,36.23
2019-01-24T04:12:51.853Z,44.43
2019-01-24T04:15:25.992Z,41.03
2019-01-24T04:17:55.499Z,41.77
2019-01-24T04:20:24.983Z,37.20
2019-01-24T04:22:54.415Z,36.47
2019-01-24T04:25:23.877Z,35.90
2019-01-24T04:27:53.297Z,34.87
2019-01-24T04:30:23.848Z,32.83
2019-01-24T04:32:53.387Z,32.33
2019-01-24T04:35:23.118Z,36.50
2019-01-24T04:37:52.645Z,35.30
2019-01-24T04:40:22.191Z,36.03
2019-01-24T04:42:51.656Z,35.43
2019-01-24T04:45:21.179Z,36.10
2019-01-24T04:47:50.676Z,38.17
2019-01-24T04:50:20.095Z,37.07
2019-01-24T04:52:49.551Z,36.03
2019-01-24T04:55:20.687Z,44.23
2019-01-24T04:57:50.373Z,51.43
2019-01-24T05:00:28.297Z,41.53
2019-01-24T05:02:57.815Z,45.20
2019-01-24T05:05:28.232Z,45.80
2019-01-24T05:07:57.860Z,54.87
2019-01-24T05:10:27.322Z,66.30
2019-01-24T05:12:56.772Z,68.43
2019-01-24T05:15:26.290Z,73.27
2019-01-24T05:17:55.723Z,76.27
2019-01-24T05:20:25.111Z,81.93
2019-01-24T05:22:54.504Z,72.20
2019-01-24T05:25:23.961Z,66.10
2019-01-24T05:27:53.450Z,66.20
2019-01-24T05:30:29.566Z,65.23
2019-01-24T05:32:59.001Z,60.37
2019-01-24T05:35:34.677Z,54.13
2019-01-24T05:37:59.654Z,55.40
2019-01-24T05:40:29.092Z,49.60
2019-01-24T05:42:58.449Z,55.33
2019-01-24T05:45:27.989Z,56.87
2019-01-24T05:47:57.346Z,57.00
2019-01-24T05:50:26.787Z,64.97
2019-01-24T05:52:56.310Z,61.70
2019-01-24T05:55:25.725Z,65.20
2019-01-24T05:57:55.069Z,67.90
2019-01-24T06:00:34.029Z,81.73
2019-01-24T06:03:03.385Z,68.77
2019-01-24T06:05:32.749Z,64.60
2019-01-24T06:08:02.245Z,57.40
2019-01-24T06:10:31.652Z,53.77
2019-01-24T06:13:01.118Z,50.83
2019-01-24T06:15:30.501Z,49.03
2019-01-24T06:17:59.927Z,50.20
2019-01-24T06:20:29.325Z,78.40
2019-01-24T06:22:58.816Z,55.33
2019-01-24T06:25:28.259Z,55.80
2019-01-24T06:27:57.736Z,56.93
2019-01-24T06:30:27.247Z,49.50
2019-01-24T06:32:56.696Z,56.13
2019-01-24T06:35:26.137Z,67.70
2019-01-24T06:37:55.675Z,70.37
2019-01-24T06:40:25.172Z,70.80
2019-01-24T06:42:54.618Z,60.70
2019-01-24T06:45:24.058Z,71.37
2019-01-24T06:47:53.519Z,97.10
2019-01-24T06:50:22.907Z,108.80
2019-01-24T06:52:52.360Z,101.73
2019-01-24T06:55:26.923Z,87.67
2019-01-24T06:57:56.379Z,76.20
2019-01-24T07:00:25.799Z,77.63
2019-01-24T07:02:55.238Z,82.37
2019-01-24T07:05:24.734Z,90.40
2019-01-24T07:07:54.166Z,100.63
2019-01-24T07:10:23.789Z,108.87
2019-01-24T07:12:53.303Z,103.80
2019-01-24T07:15:23.939Z,116.50
2019-01-24T07:17:53.728Z,108.80
2019-01-24T07:20:23.305Z,111.03
2019-01-24T07:22:52.715Z,105.67
2019-01-24T07:25:24.225Z,104.20
2019-01-24T07:27:53.626Z,72.80
2019-01-24T07:30:23.169Z,66.87
2019-01-24T07:32:52.935Z,66.40
2019-01-24T07:35:22.355Z,63.40
2019-01-24T07:37:51.809Z,66.63
2019-01-24T07:40:21.224Z,70.70
2019-01-24T07:42:50.791Z,65.20
2019-01-24T07:45:31.803Z,72.47
2019-01-24T07:48:01.270Z,66.80
2019-01-24T07:50:30.678Z,74.50
2019-01-24T07:53:00.081Z,71.20
2019-01-24T07:55:29.479Z,68.40
2019-01-24T07:57:58.870Z,56.53
2019-01-24T08:00:28.548Z,62.70
2019-01-24T08:02:58.077Z,65.43
2019-01-24T08:05:28.025Z,78.20
2019-01-24T08:07:57.600Z,91.23
2019-01-24T08:10:26.981Z,89.50
2019-01-24T08:12:56.331Z,70.93
2019-01-24T08:15:25.778Z,61.60
2019-01-24T08:17:55.215Z,61.20
2019-01-24T08:20:26.030Z,65.20
2019-01-24T08:22:55.417Z,62.07
2019-01-24T08:25:24.966Z,52.50
2019-01-24T08:27:54.520Z,56.03
2019-01-24T08:30:29.869Z,60.23
2019-01-24T08:32:59.228Z,64.60
2019-01-24T08:35:28.646Z,66.37
2019-01-24T08:37:58.065Z,58.77
2019-01-24T08:40:27.605Z,96.13
2019-01-24T08:42:56.989Z,285.33
2019-01-24T08:45:26.413Z,113.40
2019-01-24T08:47:55.839Z,82.87
2019-01-24T08:50:25.430Z,62.67
2019-01-24T08:52:55.829Z,56.83
2019-01-24T08:55:30.711Z,59.93
2019-01-24T08:58:00.179Z,56.20
2019-01-24T09:00:29.643Z,56.63
2019-01-24T09:02:59.055Z,52.63
2019-01-24T09:05:28.969Z,59.53
2019-01-24T09:07:58.410Z,58.70
2019-01-24T09:10:33.308Z,58.27
2019-01-24T09:13:02.842Z,49.17
2019-01-24T09:15:32.444Z,50.00
2019-01-24T09:18:01.855Z,47.73
2019-01-24T09:20:31.377Z,49.03
2019-01-24T09:23:00.763Z,52.20
2019-01-24T09:25:30.296Z,51.03
2019-01-24T09:27:59.768Z,50.40
2019-01-24T09:30:29.503Z,50.33
2019-01-24T09:32:59.005Z,49.83
2019-01-24T09:35:28.417Z,63.83
2019-01-24T09:37:57.881Z,106.10
2019-01-24T09:40:27.309Z,74.37
2019-01-24T09:42:56.791Z,64.47
2019-01-24T09:45:27.961Z,76.13
2019-01-24T09:47:59.888Z,88.07
2019-01-24T09:50:29.831Z,77.87
2019-01-24T09:52:59.231Z,71.43
2019-01-24T09:55:28.745Z,76.37
2019-01-24T09:57:58.168Z,70.90
2019-01-24T10:00:29.710Z,58.70
2019-01-24T10:02:59.195Z,59.07
2019-01-24T10:05:28.599Z,57.97
2019-01-24T10:07:58.054Z,53.33
2019-01-24T10:10:27.744Z,62.33
2019-01-24T10:12:58.140Z,63.67
2019-01-24T10:15:27.642Z,60.63
2019-01-24T10:17:57.037Z,62.87
2019-01-24T10:20:27.250Z,60.33
2019-01-24T10:22:56.957Z,57.10
2019-01-24T10:25:29.603Z,61.60
2019-01-24T10:27:58.987Z,63.33
2019-01-24T10:30:29.405Z,57.33
2019-01-24T10:32:58.947Z,63.27
2019-01-24T10:35:28.396Z,60.70
2019-01-24T10:37:57.834Z,55.43
2019-01-24T10:40:32.157Z,58.67
2019-01-24T10:43:01.541Z,58.67
2019-01-24T10:45:30.917Z,57.33
2019-01-24T10:48:00.407Z,56.50
2019-01-24T10:50:29.929Z,58.87
2019-01-24T10:52:59.293Z,60.47
2019-01-24T10:55:29.827Z,59.60
2019-01-24T10:58:01.508Z,59.00
2019-01-24T11:00:33.952Z,61.60
2019-01-24T11:03:05.031Z,59.47
2019-01-24T11:05:34.761Z,60.67
2019-01-24T11:08:04.545Z,56.63
2019-01-24T11:10:34.380Z,62.77
2019-01-24T11:13:03.844Z,63.23
2019-01-24T11:15:33.328Z,60.00
2019-01-24T11:18:02.718Z,62.67
2019-01-24T11:20:32.076Z,64.67
2019-01-24T11:23:01.571Z,66.60
2019-01-24T11:25:30.943Z,73.40
2019-01-24T11:28:00.299Z,81.90
2019-01-24T11:30:30.746Z,93.23
2019-01-24T11:33:00.204Z,62.67
2019-01-24T11:35:32.370Z,76.37
2019-01-24T11:38:01.880Z,107.20
2019-01-24T11:40:31.408Z,66.70
2019-01-24T11:43:00.794Z,77.13
2019-01-24T11:45:33.318Z,77.13
2019-01-24T11:48:02.673Z,68.50
2019-01-24T11:50:32.086Z,95.00
2019-01-24T11:53:01.511Z,76.37
2019-01-24T11:55:30.858Z,71.40
2019-01-24T11:58:00.320Z,64.97
2019-01-24T12:00:34.596Z,78.10
2019-01-24T12:03:03.937Z,85.00
2019-01-24T12:05:33.323Z,78.20
2019-01-24T12:08:02.879Z,103.80
2019-01-24T12:10:32.362Z,64.00
2019-01-24T12:13:01.742Z,73.17
2019-01-24T12:15:31.173Z,43.93
2019-01-24T12:18:00.507Z,47.17
2019-01-24T12:20:29.873Z,52.33
2019-01-24T12:22:59.324Z,58.83
2019-01-24T12:25:28.671Z,58.93
2019-01-24T12:27:58.001Z,59.57
2019-01-24T12:30:32.179Z,66.57
2019-01-24T12:33:01.892Z,53.40
2019-01-24T12:35:31.358Z,55.80
2019-01-24T12:38:01.171Z,64.27
2019-01-24T12:40:30.513Z,67.53
2019-01-24T12:42:59.847Z,62.63
2019-01-24T12:45:34.317Z,67.77
2019-01-24T12:48:03.769Z,67.03
2019-01-24T12:50:33.202Z,67.13
2019-01-24T12:53:02.563Z,64.83
2019-01-24T12:55:31.924Z,69.23
2019-01-24T12:58:01.343Z,65.80
2019-01-24T13:00:33.587Z,66.53
2019-01-24T13:03:02.971Z,64.10
2019-01-24T13:05:32.359Z,61.17
2019-01-24T13:08:01.879Z,66.73
2019-01-24T13:10:31.711Z,68.27
2019-01-24T13:13:01.421Z,88.80
2019-01-24T13:15:32.150Z,65.53
2019-01-24T13:18:01.610Z,67.43
2019-01-24T13:20:31.038Z,69.03
2019-01-24T13:23:00.433Z,65.73
2019-01-24T13:25:31.860Z,66.80
2019-01-24T13:28:01.218Z,60.70
2019-01-24T13:30:32.261Z,57.03
2019-01-24T13:33:01.912Z,62.47
2019-01-24T13:35:31.317Z,59.53
2019-01-24T13:38:00.802Z,64.30
2019-01-24T13:40:31.693Z,63.67
2019-01-24T13:43:02.242Z,60.03
2019-01-24T13:45:33.911Z,60.23
2019-01-24T13:48:03.276Z,63.90
2019-01-24T13:50:32.758Z,59.17
2019-01-24T13:53:02.210Z,62.20
2019-01-24T13:55:31.563Z,55.17
2019-01-24T13:58:00.995Z,56.73
2019-01-24T14:00:32.801Z,56.47
2019-01-24T14:03:08.902Z,58.93
2019-01-24T14:05:38.415Z,59.87
2019-01-24T14:08:07.782Z,59.20
2019-01-24T14:10:37.249Z,57.07
2019-01-24T14:13:06.804Z,57.43
2019-01-24T14:15:36.220Z,60.53
2019-01-24T14:18:06.638Z,61.00
2019-01-24T14:20:36.164Z,58.40
2019-01-24T14:23:08.436Z,59.80
2019-01-24T14:25:37.884Z,57.13
2019-01-24T14:28:07.447Z,59.93
2019-01-24T14:30:36.838Z,60.83
2019-01-24T14:33:06.382Z,59.30
2019-01-24T14:35:35.887Z,59.87
2019-01-24T14:38:07.127Z,56.67
2019-01-24T14:40:36.477Z,57.47
2019-01-24T14:43:06.411Z,57.87
2019-01-24T14:45:35.858Z,60.63
2019-01-24T14:48:05.978Z,60.87
2019-01-24T14:50:35.539Z,59.77
2019-01-24T14:53:05.059Z,65.77
2019-01-24T14:55:34.414Z,65.30
2019-01-24T14:58:03.843Z,57.03
2019-01-24T15:00:49.000Z,71.33
2019-01-24T15:03:18.477Z,71.40
2019-01-24T15:05:48.240Z,61.43
2019-01-24T15:08:17.663Z,60.13
2019-01-24T15:10:47.163Z,61.30
2019-01-24T15:13:16.555Z,57.00
2019-01-24T15:15:46.000Z,61.37
2019-01-24T15:18:15.494Z,60.03
2019-01-24T15:20:44.832Z,64.80
2019-01-24T15:23:14.280Z,62.10
2019-01-24T15:25:43.789Z,122.87
2019-01-24T15:28:13.155Z,88.37
2019-01-24T15:30:42.581Z,67.53
2019-01-24T15:33:12.061Z,63.67
2019-01-24T15:35:41.488Z,63.40
2019-01-24T15:38:10.843Z,67.90
2019-01-24T15:40:40.369Z,61.90
2019-01-24T15:43:09.740Z,64.73
2019-01-24T15:45:39.206Z,70.87
2019-01-24T15:48:08.755Z,68.93
2019-01-24T15:50:38.205Z,67.83
2019-01-24T15:53:07.644Z,68.77
2019-01-24T15:55:37.071Z,65.07
2019-01-24T15:58:06.440Z,67.40
2019-01-24T16:00:35.978Z,69.57
2019-01-24T16:03:05.897Z,71.03
2019-01-24T16:05:35.371Z,69.17
2019-01-24T16:08:05.093Z,65.23
2019-01-24T16:10:34.588Z,63.07
2019-01-24T16:13:04.013Z,61.87
2019-01-24T16:15:35.164Z,64.93
2019-01-24T16:18:07.783Z,68.30
2019-01-24T16:20:37.177Z,66.40
2019-01-24T16:23:06.625Z,80.73
2019-01-24T16:25:36.569Z,81.87
2019-01-24T16:28:06.044Z,92.27
2019-01-24T16:30:36.509Z,91.50
2019-01-24T16:33:07.800Z,85.33
2019-01-24T16:35:37.576Z,82.77
2019-01-24T16:38:09.529Z,78.93
2019-01-24T16:40:38.160Z,74.90
2019-01-24T16:43:07.608Z,78.27
2019-01-24T16:45:37.020Z,78.10
2019-01-24T16:48:06.770Z,79.10
2019-01-24T16:50:36.236Z,86.40
2019-01-24T16:53:05.770Z,80.23
2019-01-24T16:55:35.192Z,83.93
2019-01-24T16:58:04.679Z,79.13
2019-01-24T17:01:00.092Z,80.50
2019-01-24T17:03:29.656Z,80.60
2019-01-24T17:05:59.082Z,87.87
2019-01-24T17:08:28.548Z,97.03
2019-01-24T17:10:57.993Z,93.53
2019-01-24T17:13:27.438Z,87.90
2019-01-24T17:15:56.933Z,81.77
2019-01-24T17:18:26.354Z,82.10
2019-01-24T17:20:55.760Z,75.70
2019-01-24T17:23:25.160Z,76.57
2019-01-24T17:25:54.651Z,79.93
2019-01-24T17:28:24.068Z,77.00
2019-01-24T17:30:53.506Z,77.43
2019-01-24T17:33:22.934Z,74.70
2019-01-24T17:35:52.391Z,74.57
2019-01-24T17:38:23.986Z,111.47
2019-01-24T17:40:53.027Z,98.40
2019-01-24T17:43:22.496Z,93.37
2019-01-24T17:45:52.064Z,79.40
2019-01-24T17:48:21.542Z,80.00
2019-01-24T17:50:50.996Z,73.67
2019-01-24T17:53:20.558Z,69.83
2019-01-24T17:55:49.965Z,61.10
2019-01-24T17:58:19.404Z,57.27
2019-01-24T18:00:51.397Z,57.27
2019-01-24T18:03:20.801Z,59.67
2019-01-24T18:05:50.175Z,66.50
2019-01-24T18:08:19.610Z,63.67
2019-01-24T18:10:49.038Z,57.03
2019-01-24T18:13:18.470Z,49.70
2019-01-24T18:15:48.197Z,52.00
2019-01-24T18:18:18.384Z,57.63
2019-01-24T18:20:47.886Z,57.60
2019-01-24T18:23:17.404Z,72.40
2019-01-24T18:25:46.819Z,71.93
2019-01-24T18:28:17.797Z,75.83
2019-01-24T18:30:47.374Z,65.13
2019-01-24T18:33:16.763Z,57.50
2019-01-24T18:35:46.231Z,54.50
2019-01-24T18:38:15.758Z,50.63
2019-01-24T18:40:45.134Z,49.20
2019-01-24T18:43:23.690Z,48.70
2019-01-24T18:45:54.822Z,49.03
2019-01-24T18:48:24.333Z,50.90
2019-01-24T18:50:53.738Z,50.77
2019-01-24T18:53:23.201Z,50.40
2019-01-24T18:55:52.571Z,67.07
2019-01-24T18:58:22.122Z,57.27
2019-01-24T19:00:51.565Z,66.40
2019-01-24T19:03:21.028Z,75.50
2019-01-24T19:05:50.881Z,77.87
2019-01-24T19:08:20.333Z,93.60
2019-01-24T19:10:49.794Z,89.63
2019-01-24T19:13:19.279Z,77.37
2019-01-24T19:15:50.085Z,70.17
2019-01-24T19:18:19.462Z,66.23
2019-01-24T19:20:48.965Z,78.13
2019-01-24T19:23:18.323Z,59.53
2019-01-24T19:25:47.725Z,62.83
2019-01-24T19:28:18.901Z,59.80
2019-01-24T19:30:48.335Z,66.43
2019-01-24T19:33:17.675Z,67.80
2019-01-24T19:35:47.166Z,63.77
2019-01-24T19:38:16.604Z,62.13
2019-01-24T19:40:46.135Z,59.17
2019-01-24T19:43:15.603Z,61.53
2019-01-24T19:45:44.983Z,66.07
2019-01-24T19:48:14.481Z,63.37
2019-01-24T19:50:43.982Z,64.50
2019-01-24T19:53:13.406Z,64.87
2019-01-24T19:55:42.784Z,59.67
2019-01-24T19:58:13.064Z,65.17
2019-01-24T20:00:42.549Z,64.97
2019-01-24T20:03:11.978Z,61.90
2019-01-24T20:05:41.496Z,57.53
2019-01-24T20:08:10.981Z,60.77
2019-01-24T20:10:40.387Z,61.37
2019-01-24T20:13:09.801Z,66.97
2019-01-24T20:15:39.171Z,73.47
2019-01-24T20:18:09.014Z,72.77
2019-01-24T20:20:38.516Z,70.37
2019-01-24T20:23:08.266Z,90.07
2019-01-24T20:25:37.620Z,83.80
2019-01-24T20:28:07.087Z,80.47
2019-01-24T20:30:36.568Z,62.50
2019-01-24T20:33:06.407Z,57.10
2019-01-24T20:35:51.212Z,68.37
2019-01-24T20:38:20.652Z,65.87
2019-01-24T20:40:50.193Z,104.40
2019-01-24T20:43:20.438Z,97.63
2019-01-24T20:45:49.883Z,83.43
2019-01-24T20:48:19.257Z,86.83
2019-01-24T20:50:48.804Z,99.17
2019-01-24T20:53:18.153Z,80.67
2019-01-24T20:55:47.491Z,64.60
2019-01-24T20:58:16.921Z,57.50
2019-01-24T21:00:46.307Z,49.40
2019-01-24T21:03:15.634Z,54.07
2019-01-24T21:05:45.102Z,58.00
2019-01-24T21:08:14.572Z,62.87
2019-01-24T21:10:44.045Z,69.87
2019-01-24T21:13:13.565Z,66.07
2019-01-24T21:15:43.007Z,70.83
2019-01-24T21:18:12.867Z,69.03
2019-01-24T21:20:42.307Z,56.87
2019-01-24T21:23:11.692Z,52.63
2019-01-24T21:25:41.018Z,43.17
2019-01-24T21:28:10.575Z,35.17
2019-01-24T21:30:40.021Z,32.03
2019-01-24T21:33:09.515Z,31.10
2019-01-24T21:35:38.913Z,31.33
2019-01-24T21:38:09.494Z,29.47
2019-01-24T21:40:38.979Z,30.33
2019-01-24T21:43:08.625Z,33.23
2019-01-24T21:45:38.329Z,32.27
2019-01-24T21:48:08.311Z,32.20
2019-01-24T21:50:37.828Z,34.07
2019-01-24T21:53:08.039Z,34.93
2019-01-24T21:55:37.373Z,34.33
2019-01-24T21:58:08.318Z,34.50
2019-01-24T22:00:37.802Z,35.27
2019-01-24T22:03:07.270Z,39.63
2019-01-24T22:05:36.834Z,38.67
2019-01-24T22:08:07.774Z,37.03
2019-01-24T22:10:38.247Z,37.27
2019-01-24T22:13:07.860Z,38.97
2019-01-24T22:15:37.215Z,35.90
2019-01-24T22:18:07.403Z,35.30
2019-01-24T22:20:36.841Z,31.90
2019-01-24T22:23:06.651Z,30.83
2019-01-24T22:25:36.686Z,25.87
2019-01-24T22:28:07.457Z,28.50
2019-01-24T22:30:45.332Z,28.00
2019-01-24T22:33:14.667Z,23.17
2019-01-24T22:35:44.060Z,26.43
2019-01-24T22:38:13.457Z,25.20
2019-01-24T22:40:42.836Z,26.67
2019-01-24T22:43:12.302Z,27.70
2019-01-24T22:45:41.770Z,26.70
2019-01-24T22:48:11.140Z,27.60
2019-01-24T22:50:40.581Z,25.77
2019-01-24T22:53:10.195Z,25.53
2019-01-24T22:55:39.652Z,26.77
2019-01-24T22:58:09.232Z,25.33
2019-01-24T23:01:28.552Z,25.10
2019-01-24T23:04:11.052Z,27.47
2019-01-24T23:06:40.574Z,26.13
2019-01-24T23:09:11.909Z,24.77
2019-01-24T23:11:41.273Z,24.13
2019-01-24T23:14:10.674Z,25.37
2019-01-24T23:16:39.986Z,24.93
2019-01-24T23:19:09.371Z,26.03
2019-01-24T23:21:38.896Z,25.50
2019-01-24T23:24:08.355Z,23.97
2019-01-24T23:26:37.765Z,24.80
2019-01-24T23:29:07.251Z,22.47
2019-01-24T23:31:36.685Z,26.90
2019-01-24T23:34:06.776Z,31.30
2019-01-24T23:36:36.386Z,38.10
2019-01-24T23:39:09.575Z,37.97
2019-01-24T23:41:38.991Z,46.30
2019-01-24T23:44:08.353Z,45.73
2019-01-24T23:46:37.703Z,43.87
2019-01-24T23:49:07.106Z,41.33
2019-01-24T23:51:36.602Z,36.73
2019-01-24T23:54:06.291Z,34.23
2019-01-24T23:56:35.679Z,30.43
2019-01-24T23:59:05.055Z,28.53
